Saturday, November 18, 2017, 11:50 PM EST
Back to Local

KIAG, Niagara Falls International Airport

Location: Niagara Falls, NY, United States Lat: 43.117
Local Time: 11:50 PM EST ( 4:50 GMT) Lon: -78.933
Time Zone: US/Eastern Elev: 583 ft

Show me the last for .
Show Decoded

2017-11-18 23:27 METAR KIAG 190427Z 32007KT 3SM -RA BR OVC004 09/07 A2907 RMK AO2 P0003 T00890067
                 $ =
2017-11-18 23:00 METAR KIAG 190400Z 31004KT 3SM -RA BR BKN003 OVC025 09/07 A2907 RMK AO2 P0000
                 T00940072 $ =
2017-11-18 22:53 METAR KIAG 190353Z 33003KT 2SM RA BR BKN002 BKN018 OVC025 09/07 A2907 RMK AO2
                 SLP848 P0009 T00940072 $ =
2017-11-18 22:46 METAR KIAG 190346Z 33005KT 2SM -RA BR SCT002 BKN018 OVC025 09/07 A2907 RMK AO2
                 P0008 T00940072 $ =
2017-11-18 22:10 METAR KIAG 190310Z 00000KT 1 1/2SM RA BR FEW002 BKN011 OVC018 09/08 A2909 RMK
                 AO2 P0002 T00940078 $ =
2017-11-18 22:05 METAR KIAG 190305Z 00000KT 1 3/4SM -RA BR SCT011 OVC018 09/08 A2909 RMK AO2
                 P0001 T00940078 $ =
2017-11-18 22:00 METAR KIAG 190300Z 10003KT 3SM -RA BR FEW013 BKN018 OVC026 09/07 A2910 RMK AO2
                 P0000 T00940072 $ =
2017-11-18 21:53 METAR KIAG 190253Z 10004KT 2 1/2SM -RA BR BKN018 OVC025 09/07 A2910 RMK AO2
                 SLP859 P0004 60012 T00940072 58027 $ =
2017-11-18 21:15 METAR KIAG 190215Z 09003KT 2SM -RA BR FEW004 BKN020 OVC025 09/08 A2913 RMK AO2
                 P0001 T00940078 $ =
2017-11-18 21:00 METAR KIAG 190200Z 08003KT 3SM -RA BR FEW006 OVC022 09/07 A2913 RMK AO2 P0000
                 T00940072 $ =
2017-11-18 20:53 METAR KIAG 190153Z 08004KT 2SM -RA BR SCT004 BKN008 OVC025 09/07 A2913 RMK AO2
                 SLP870 P0003 T00940072 $ =
2017-11-18 20:15 METAR KIAG 190115Z 10006KT 2SM -RA BR SCT004 BKN008 OVC029 09/07 A2916 RMK AO2
                 P0001 T00940072 $ =
2017-11-18 19:53 METAR KIAG 190053Z 10006KT 2SM -RA BR FEW004 BKN012 OVC016 09/07 A2918 RMK AO2
                 SLP885 P0005 T00890072 $ =
2017-11-18 19:49 METAR KIAG 190049Z 10006KT 2SM -RA BR FEW006 BKN012 OVC021 09/07 A2918 RMK AO2
                 P0005 $ =
2017-11-18 19:28 METAR KIAG 190028Z 10005KT 2SM -RA BR FEW007 OVC020 09/07 A2919 RMK AO2 P0003
                 T00940072 $ =
2017-11-18 19:18 METAR KIAG 190018Z 10006KT 1 3/4SM -RA BR SCT007 OVC023 09/07 A2920 RMK AO2
                 P0002 T00940072 $ =
2017-11-18 19:00 METAR KIAG 190000Z 11007KT 2SM -RA BR SCT007 BKN019 OVC027 09/07 A2921 RMK AO2
                 PRESFR P0001 T00940072 $ =
2017-11-18 18:53 METAR KIAG 182353Z 12007KT 3SM -RA BR SCT007 BKN019 OVC034 09/07 A2922 RMK AO2
                 SLP901 P0003 60029 T00940072 10100 20089 58037 $ =
2017-11-18 18:40 METAR KIAG 182340Z 13007KT 3SM -RA BR SCT004 BKN007 OVC018 09/07 A2924 RMK AO2
                 CIG 005V009 P0002 T00940072 $ =
2017-11-18 18:33 METAR KIAG 182333Z 13006KT 3SM -RA BR BKN003 BKN008 OVC016 09/07 A2924 RMK AO2
                 CIG 002V007 P0002 T00890067 $ =
2017-11-18 17:53 METAR KIAG 182253Z 10005KT 3SM -RA BR BKN009 OVC015 09/07 A2927 RMK AO2 SLP917
                 P0014 T00890067 $ =
2017-11-18 17:44 METAR KIAG 182244Z 10005KT 3SM -RA BKN009 BKN015 OVC024 09/07 A2928 RMK AO2
                 P0014 T00940067 $ =
2017-11-18 17:31 METAR KIAG 182231Z 11005KT 2 1/2SM RA SCT009 BKN015 OVC022 09/07 A2929 RMK AO2
                 P0011 T00940067 $ =
2017-11-18 17:22 METAR KIAG 182222Z 13004KT 3SM RA BR BKN009 OVC017 09/07 A2930 RMK AO2 P0008
                 T00940072 $ =
2017-11-18 17:15 METAR KIAG 182215Z 13004KT 3SM RA BR SCT009 BKN017 OVC023 09/07 A2930 RMK AO2
                 P0006 T00940072 $ =
2017-11-18 16:53 METAR KIAG 182153Z 14003KT 3SM +RA BKN011 OVC016 09/07 A2931 RMK AO2 SLP932
                 P0011 T00940067 $ =
2017-11-18 15:53 METAR KIAG 182053Z 17009KT 4SM -RA OVC013 09/07 A2933 RMK AO2 RAB37 SLP941 P0001
                 60001 T00940067 58024 $ =
2017-11-18 15:08 METAR KIAG 182008Z 16006KT 10SM OVC011 09/07 A2935 RMK AO2 T00940067 $ =
2017-11-18 14:53 METAR KIAG 181953Z 14006KT 6SM BR OVC009 09/07 A2935 RMK AO2 CIG 003V012 PRESFR
                 SLP946 T00890067 $ =
2017-11-18 14:46 METAR KIAG 181946Z 14006KT 4SM BR OVC009 09/07 A2936 RMK AO2 CIG 003V011
                 T00890067 $ =
2017-11-18 14:39 METAR KIAG 181939Z 14007KT 2 1/2SM BR OVC007 09/07 A2937 RMK AO2 CIG 003V011
                 PRESFR T00890067 $ =
2017-11-18 14:26 METAR KIAG 181926Z 16006KT 4SM HZ OVC007 09/07 A2938 RMK AO2 CIG 005V010
                 T00940067 $ =
2017-11-18 13:53 METAR KIAG 181853Z 16006KT 3SM HZ OVC006 09/07 A2940 RMK AO2 CIG 005V010 PRESFR
                 SLP966 T00940067 $ =
2017-11-18 13:50 METAR KIAG 181850Z 17006KT 3SM HZ OVC006 09/07 A2941 RMK AO2 CIG 005V010 PRESFR
                 $ =
2017-11-18 13:27 METAR KIAG 181827Z 21009KT 2 1/2SM HZ OVC007 09/07 A2943 RMK AO2 CIG 005V012
                 T00940067 $ =
2017-11-18 12:53 METAR KIAG 181753Z 20013KT 3SM HZ OVC010 09/07 A2945 RMK AO2 CIG 007V013 SLP983
                 60000 T00940067 10094 20078 56030 $ =
2017-11-18 12:14 METAR KIAG 181714Z 20009KT 3SM BR FEW008 OVC013 09/07 A2946 RMK AO2 T00890067 $
                 =
2017-11-18 11:53 METAR KIAG 181653Z 20011KT 2 1/2SM HZ BKN008 OVC013 09/06 A2948 RMK AO2 CIG
                 005V011 SLP992 T00890061 $ =
2017-11-18 11:33 METAR KIAG 181633Z 20009KT 2SM HZ OVC008 09/06 A2949 RMK AO2 CIG 005V012
                 T00890061 $ =
2017-11-18 10:53 METAR KIAG 181553Z 21007KT 6SM HZ OVC012 09/06 A2951 RMK AO2 RAB04E11 SLP002
                 P0000 T00890056 $ =
2017-11-18 09:53 METAR KIAG 181453Z 21012KT 5SM HZ OVC016 09/05 A2954 RMK AO2 SLP013 60000
                 T00890050 56020 $ =
2017-11-18 08:53 METAR KIAG 181353Z 21014KT 10SM OVC019 09/04 A2955 RMK AO2 SLP017 T00890039 $ =
2017-11-18 07:53 METAR KIAG 181253Z 21012KT 10SM BKN028 OVC035 08/03 A2957 RMK AO2 RAB05E42
                 SLP022 P0000 T00830028 $ =
2017-11-18 06:53 METAR KIAG 181153Z 20008KT 10SM BKN060 OVC090 08/01 A2960 RMK AO2 RAE40 SLP033
                 P0001 60001 70001 T00830011 10083 20000 58030 $ =
2017-11-18 05:53 METAR KIAG 181053Z AUTO 17006KT 10SM -RA OVC085 07/M01 A2962 RMK AO2 RAB16
                 PRESFR SLP041 P0000 T00721006 $ =
2017-11-18 04:53 METAR KIAG 180953Z AUTO 20004KT 10SM SCT100 BKN110 05/M02 A2967 RMK AO2 SLP060
                 T00501022 $ =
2017-11-18 03:53 METAR KIAG 180853Z AUTO 15004KT 10SM BKN110 04/M03 A2969 RMK AO2 SLP066
                 T00391033 56040 $ =
2017-11-18 02:53 METAR KIAG 180753Z AUTO 10003KT 10SM OVC110 02/M03 A2973 RMK AO2 SLP080
                 T00221028 $ =
2017-11-18 01:53 METAR KIAG 180653Z AUTO 10006KT 10SM OVC110 01/M03 A2975 RMK AO2 SLP089
                 T00111033 $ =
2017-11-18 00:53 METAR KIAG 180553Z AUTO 10006KT 10SM CLR 01/M04 A2981 RMK AO2 SLP108 T00061039
                 10022 20006 58043 $ =
2017-11-17 23:53 METAR KIAG 180453Z AUTO 10004KT 10SM CLR 01/M04 A2987 RMK AO2 SLP128 T00061039
                 400280000 =

Support USWX by starting your Amazon purchase here.